Time;durP1;ratioP1;P1;durP2;ratioP2;P2;SDS_P1;SDS_P2;PMS_P1;PMS_P2;Temp;Humidity;BMP_temperature;BMP_pressure;BME280_temperature;BME280_humidity;BME280_pressure;Samples;Min_cycle;Max_cycle;Signal;HPM_P1;HPM_P2
2022/08/15 00:01:21;;;;;;;16.48;4.40;;;;;;;19.08;77.18;98064.84;5092732;28;20032;-50
2022/08/15 00:03:52;;;;;;;16.83;5.25;;;;;;;19.10;77.28;98053.94;5092761;28;20023;-49
2022/08/15 00:06:33;;;;;;;17.05;5.35;;;;;;;19.27;77.47;98058.94;5092634;28;20448;-49
2022/08/15 00:09:01;;;;;;;6.80;4.50;;;;;;;19.69;76.39;98050.47;5094235;28;20028;-49
2022/08/15 00:11:35;;;;;;;13.60;4.85;;;;;;;19.83;74.99;98048.03;5092581;28;20020;-49
2022/08/15 00:14:08;;;;;;;15.73;4.30;;;;;;;19.82;74.52;98048.28;5092617;28;20024;-49
2022/08/15 00:16:36;;;;;;;10.15;6.03;;;;;;;19.70;74.31;98038.75;5092555;28;20096;-49
2022/08/15 00:19:15;;;;;;;6.50;5.00;;;;;;;19.56;74.81;98043.09;5093730;28;20024;-49
2022/08/15 00:21:46;;;;;;;9.90;4.57;;;;;;;19.45;75.14;98044.22;5091421;28;20050;-49
2022/08/15 00:24:15;;;;;;;10.15;5.57;;;;;;;19.32;75.70;98041.09;5093741;28;20020;-49
2022/08/15 00:26:48;;;;;;;14.65;6.00;;;;;;;19.42;76.14;98031.44;5093401;28;20036;-49
2022/08/15 00:29:17;;;;;;;12.00;5.32;;;;;;;19.67;75.59;98033.97;5093789;28;20066;-49
2022/08/15 00:31:43;;;;;;;10.68;5.13;;;;;;;19.66;74.93;98031.59;5094072;28;20028;-49
2022/08/15 00:34:11;;;;;;;11.88;5.28;;;;;;;19.60;74.81;98036.16;5092171;28;20180;-49
2022/08/15 00:36:40;;;;;;;15.60;5.35;;;;;;;19.59;75.21;98029.22;5093419;28;20047;-48
2022/08/15 00:39:06;;;;;;;9.52;5.22;;;;;;;19.55;74.89;98026.31;5092052;28;20020;-48
2022/08/15 00:41:42;;;;;;;10.05;5.22;;;;;;;19.44;75.11;98024.00;5093311;28;20031;-49
2022/08/15 00:44:24;;;;;;;11.75;5.15;;;;;;;19.45;75.54;98020.28;5093352;28;20056;-50
2022/08/15 00:46:53;;;;;;;11.57;4.95;;;;;;;19.48;75.47;98017.84;5093250;28;20030;-49
2022/08/15 00:49:20;;;;;;;10.45;4.88;;;;;;;19.58;75.14;98017.00;5093160;28;20048;-49
2022/08/15 00:51:51;;;;;;;9.93;4.63;;;;;;;19.61;75.33;98023.66;5093106;28;20397;-48
2022/08/15 00:54:23;;;;;;;7.22;4.40;;;;;;;19.71;74.52;98023.59;5093127;28;20054;-49
2022/08/15 00:56:59;;;;;;;10.18;4.95;;;;;;;19.66;74.42;98019.09;5091700;28;20086;-49
2022/08/15 00:59:31;;;;;;;14.65;5.30;;;;;;;19.67;74.48;98012.69;5091685;28;20085;-49
2022/08/15 01:02:00;;;;;;;9.35;5.53;;;;;;;19.71;74.40;98010.28;5092992;28;20034;-49
2022/08/15 01:04:27;;;;;;;15.93;7.32;;;;;;;19.82;74.72;98014.50;5091517;28;20020;-48
2022/08/15 01:06:58;;;;;;;10.75;6.22;;;;;;;20.13;74.28;98017.72;5093292;28;20028;-49
2022/08/15 01:09:27;;;;;;;14.63;5.40;;;;;;;20.40;73.11;98016.41;5092830;28;20056;-49
2022/08/15 01:12:05;;;;;;;17.33;6.28;;;;;;;20.41;71.78;98017.22;5092769;28;20026;-49
2022/08/15 01:14:32;;;;;;;12.43;5.55;;;;;;;20.29;72.41;98017.59;5092730;28;20050;-49
2022/08/15 01:16:58;;;;;;;9.27;5.25;;;;;;;20.31;72.38;98018.09;5092563;28;20028;-50
2022/08/15 01:19:37;;;;;;;21.42;7.03;;;;;;;20.39;72.41;98017.50;5092903;28;20113;-48
2022/08/15 01:22:53;;;;;;;12.45;5.07;;;;;;;20.31;71.36;98018.88;5092620;28;20063;-48
2022/08/15 01:25:31;;;;;;;20.05;9.98;;;;;;;19.94;72.22;98014.13;5090932;28;20028;-51
2022/08/15 01:28:02;;;;;;;10.70;5.38;;;;;;;19.90;73.11;98013.91;5091210;28;20028;-48
2022/08/15 01:30:40;;;;;;;13.05;5.55;;;;;;;19.96;72.96;98014.66;5091168;28;20050;-49
2022/08/15 01:33:08;;;;;;;11.13;5.25;;;;;;;20.00;72.79;98017.53;5092275;28;20032;-49
2022/08/15 01:35:34;;;;;;;9.57;5.05;;;;;;;20.07;72.36;98010.81;5091007;28;20032;-49
2022/08/15 01:38:02;;;;;;;8.65;4.85;;;;;;;19.92;71.73;98011.75;5091036;28;20020;-49
2022/08/15 01:40:43;;;;;;;7.93;4.50;;;;;;;19.66;72.66;98008.44;5091231;28;20032;-49
2022/08/15 01:43:11;;;;;;;10.23;5.25;;;;;;;19.38;73.48;98006.44;5092268;28;20035;-49
2022/08/15 01:45:42;;;;;;;10.68;5.20;;;;;;;19.18;75.03;98010.03;5090892;28;20028;-49
2022/08/15 01:48:30;;;;;;;17.50;5.03;;;;;;;18.99;76.04;98009.84;5092211;28;20028;-48
2022/08/15 01:51:06;;;;;;;13.73;5.57;;;;;;;18.75;76.84;98013.06;5090891;28;20028;-49
2022/08/15 01:53:38;;;;;;;10.80;5.28;;;;;;;18.59;77.09;98014.16;5092131;28;20042;-48
2022/08/15 01:56:13;;;;;;;13.35;4.78;;;;;;;18.46;77.62;98012.88;5092317;28;20444;-49
2022/08/15 01:58:42;;;;;;;19.98;18.08;;;;;;;18.40;78.62;98006.75;5074931;28;20024;-48
2022/08/15 02:01:11;;;;;;;17.13;10.20;;;;;;;18.50;79.36;98001.41;5090599;28;20028;-49
2022/08/15 02:03:40;;;;;;;11.35;6.57;;;;;;;18.62;79.11;98003.78;5091896;28;20073;-47
2022/08/15 02:06:28;;;;;;;13.77;7.15;;;;;;;18.77;79.32;98009.09;5091920;28;20031;-49
2022/08/15 02:08:56;;;;;;;11.68;7.47;;;;;;;18.84;78.22;98008.03;5091906;28;20036;-49
2022/08/15 02:11:26;;;;;;;7.95;5.68;;;;;;;18.89;78.13;98002.69;5090633;28;20035;-48
2022/08/15 02:13:54;;;;;;;9.88;6.82;;;;;;;19.00;77.66;98008.78;5090523;28;20020;-49
2022/08/15 02:16:23;;;;;;;15.85;5.78;;;;;;;19.06;76.73;98011.13;5090463;28;20026;-49
2022/08/15 02:18:48;;;;;;;10.52;5.90;;;;;;;19.02;77.05;98014.63;5091675;28;20032;-49
2022/08/15 02:21:14;;;;;;;11.40;5.60;;;;;;;19.10;76.94;98011.41;5091792;28;20028;-48
2022/08/15 02:23:40;;;;;;;7.03;5.63;;;;;;;19.28;76.68;98010.00;5091780;28;20020;-50
2022/08/15 02:26:08;;;;;;;10.68;7.47;;;;;;;19.43;75.91;98009.09;5090149;28;20502;-50
2022/08/15 02:28:35;;;;;;;11.68;5.53;;;;;;;19.50;75.33;98004.28;5091797;28;20441;-49
2022/08/15 02:31:06;;;;;;;13.80;5.25;;;;;;;19.58;74.67;98003.69;5090420;28;20119;-50
2022/08/15 02:33:31;;;;;;;18.75;6.68;;;;;;;19.70;74.98;98003.38;5090457;28;20028;-49
2022/08/15 02:35:58;;;;;;;10.75;5.47;;;;;;;19.73;73.85;98005.50;5090296;28;20024;-49
2022/08/15 02:38:24;;;;;;;8.65;5.80;;;;;;;19.73;73.76;98006.28;5091552;28;20017;-49
2022/08/15 02:40:50;;;;;;;12.23;5.50;;;;;;;19.74;74.10;98007.88;5090299;28;20031;-49
2022/08/15 02:43:17;;;;;;;14.20;5.78;;;;;;;19.80;73.33;98008.66;5090522;28;20028;-49
2022/08/15 02:45:47;;;;;;;7.07;5.43;;;;;;;19.72;72.95;98011.91;5094267;28;20039;-49
2022/08/15 02:48:14;;;;;;;10.43;5.30;;;;;;;19.66;73.42;98002.28;5095498;28;20073;-49
2022/08/15 02:50:41;;;;;;;14.40;6.82;;;;;;;19.74;73.66;97991.91;5095487;28;20127;-48
2022/08/15 02:53:16;;;;;;;9.75;5.50;;;;;;;19.95;73.08;97994.41;5095521;28;20047;-50
2022/08/15 02:55:47;;;;;;;9.52;5.68;;;;;;;20.08;72.45;97991.13;5095420;28;20024;-50
2022/08/15 02:58:14;;;;;;;12.55;6.15;;;;;;;20.09;71.63;97984.72;5095346;28;20051;-49
2022/08/15 03:00:42;;;;;;;11.30;5.53;;;;;;;20.04;71.94;97994.59;5095313;28;20093;-49
2022/08/15 03:03:12;;;;;;;12.52;6.45;;;;;;;19.88;71.34;97989.41;5093977;28;20123;-49
2022/08/15 03:05:42;;;;;;;14.30;6.00;;;;;;;19.61;72.02;97987.16;5095264;28;20103;-49
2022/08/15 03:08:08;;;;;;;19.08;6.60;;;;;;;19.37;72.96;97981.72;5093927;28;20106;-50
2022/08/15 03:10:36;;;;;;;11.35;5.93;;;;;;;19.17;73.77;97987.94;5095159;28;20435;-49
2022/08/15 03:13:11;;;;;;;24.60;6.60;;;;;;;18.98;74.45;97979.00;5095038;28;20070;-49
2022/08/15 03:15:39;;;;;;;;;;;;;;;18.80;74.71;97980.41;5095549;28;20459;-49
2022/08/15 03:18:05;;;;;;;11.35;5.45;;;;;;;19.10;75.92;97979.47;5095104;28;20336;-49
2022/08/15 03:20:32;;;;;;;9.93;5.72;;;;;;;19.27;74.15;97974.59;5093582;28;20024;-50
2022/08/15 03:22:59;;;;;;;11.30;5.68;;;;;;;19.07;73.86;97972.81;5094836;28;20539;-49
2022/08/15 03:25:26;;;;;;;11.40;6.45;;;;;;;18.90;74.96;97970.50;5094535;28;20027;-49
2022/08/15 03:27:53;;;;;;;8.35;5.57;;;;;;;18.96;74.95;97968.63;5093615;28;20020;-48
2022/08/15 03:30:18;;;;;;;11.48;5.80;;;;;;;18.86;74.67;97968.66;5094689;28;20031;-49
2022/08/15 03:32:49;;;;;;;11.90;5.57;;;;;;;18.72;74.84;97973.75;5093435;28;20016;-49
2022/08/15 03:35:17;;;;;;;16.60;6.25;;;;;;;18.60;75.22;97976.69;5093593;28;20024;-49
2022/08/15 03:37:43;;;;;;;17.63;5.75;;;;;;;18.51;75.58;97973.81;5093243;28;20020;-49
2022/08/15 03:40:11;;;;;;;19.17;5.35;;;;;;;18.51;75.82;97978.28;5093200;28;20043;-49
2022/08/15 03:42:38;;;;;;;14.30;5.82;;;;;;;18.55;75.98;97982.81;5094528;28;20019;-49
2022/08/15 03:45:11;;;;;;;10.23;5.97;;;;;;;18.61;75.73;97982.78;5093117;28;20024;-50
2022/08/15 03:47:37;;;;;;;13.98;6.13;;;;;;;18.60;75.66;97968.72;5094507;28;20036;-47
2022/08/15 03:50:05;;;;;;;14.18;6.13;;;;;;;18.56;75.58;97972.97;5093036;28;20024;-49
2022/08/15 03:52:32;;;;;;;13.15;6.07;;;;;;;18.59;75.67;97979.59;5092968;28;20025;-49
2022/08/15 03:55:06;;;;;;;21.15;6.55;;;;;;;18.58;75.81;97970.06;5094250;28;20386;-49
2022/08/15 03:57:32;;;;;;;19.05;6.40;;;;;;;18.63;75.70;97970.81;5094188;28;20481;-49
2022/08/15 03:59:57;;;;;;;23.63;6.75;;;;;;;18.69;75.72;97975.09;5092897;28;20032;-49
2022/08/15 04:02:25;;;;;;;14.55;6.05;;;;;;;18.72;75.48;97979.06;5092787;28;20024;-49
2022/08/15 04:04:50;;;;;;;14.50;7.30;;;;;;;18.72;75.34;97979.06;5094057;28;20077;-49
2022/08/15 04:07:16;;;;;;;13.35;6.65;;;;;;;18.83;75.37;97980.63;5092617;28;20028;-49
2022/08/15 04:09:46;;;;;;;10.55;6.88;;;;;;;18.95;75.34;97973.16;5094029;28;20021;-49
2022/08/15 04:12:12;;;;;;;93.68;85.13;;;;;;;19.06;75.02;97976.56;5093975;28;20064;-48
2022/08/15 04:14:37;;;;;;;12.82;9.98;;;;;;;19.20;75.21;97983.97;5092586;28;20052;-49
2022/08/15 04:17:03;;;;;;;10.23;7.25;;;;;;;19.42;74.64;97975.56;5093731;28;20054;-49
2022/08/15 04:19:32;;;;;;;14.07;7.13;;;;;;;19.47;73.81;97988.84;5094075;28;20028;-48
2022/08/15 04:22:06;;;;;;;16.98;11.40;;;;;;;19.46;73.55;97987.28;5093805;28;20128;-49
2022/08/15 04:24:31;;;;;;;17.50;7.80;;;;;;;19.37;73.74;97979.06;5093743;28;20501;-49
2022/08/15 04:26:57;;;;;;;162.38;148.07;;;;;;;19.35;73.69;97981.19;5092044;28;20050;-49
2022/08/15 04:29:23;;;;;;;20.23;13.35;;;;;;;19.29;73.78;97982.31;5092320;28;20021;-49
2022/08/15 04:31:48;;;;;;;17.20;8.07;;;;;;;19.24;73.87;97977.03;5092222;28;20043;-49
2022/08/15 04:34:15;;;;;;;10.63;7.30;;;;;;;19.24;74.10;97983.13;5093549;28;20435;-49
2022/08/15 04:36:41;;;;;;;15.23;8.05;;;;;;;19.32;73.84;97981.75;5093444;28;20374;-49
2022/08/15 04:39:07;;;;;;;11.25;6.22;;;;;;;19.37;73.34;97973.75;5093285;28;20111;-49
2022/08/15 04:41:33;;;;;;;11.35;6.07;;;;;;;19.32;72.89;97971.91;5093363;28;20032;-48
2022/08/15 04:43:58;;;;;;;13.65;8.18;;;;;;;19.23;72.99;97972.75;5093290;28;20028;-49
2022/08/15 04:46:24;;;;;;;10.32;5.70;;;;;;;19.10;73.33;97969.63;5091880;28;20040;-49
2022/08/15 04:48:50;;;;;;;9.57;4.88;;;;;;;19.04;73.68;97969.94;5093289;28;20049;-49
2022/08/15 04:51:15;;;;;;;8.18;5.03;;;;;;;18.96;73.81;97968.63;5091800;28;20027;-49
2022/08/15 04:53:41;;;;;;;8.15;4.45;;;;;;;18.92;73.84;97968.38;5093135;28;20026;-49
2022/08/15 04:56:07;;;;;;;7.95;4.78;;;;;;;18.85;74.02;97965.19;5091775;28;20028;-49
2022/08/15 04:58:34;;;;;;;12.27;4.68;;;;;;;18.84;74.30;97954.84;5092967;28;20496;-48
2022/08/15 05:01:05;;;;;;;41.42;36.70;;;;;;;18.92;74.90;97952.41;5092974;28;20048;-49
2022/08/15 05:03:31;;;;;;;24.10;20.45;;;;;;;19.19;74.53;97953.88;5093110;28;20479;-51
2022/08/15 05:06:02;;;;;;;9.75;6.85;;;;;;;19.44;73.81;97946.84;5092640;28;20028;-50
2022/08/15 05:08:30;;;;;;;11.52;6.45;;;;;;;19.56;72.79;97952.59;5091526;28;20114;-51
2022/08/15 05:11:04;;;;;;;34.72;31.05;;;;;;;19.64;73.10;97956.53;5092786;28;20020;-51
2022/08/15 05:13:35;;;;;;;11.02;5.78;;;;;;;19.75;72.57;97963.41;5092811;28;20046;-49
2022/08/15 05:16:01;;;;;;;10.13;5.63;;;;;;;19.84;72.09;97964.41;5092733;28;20115;-49
2022/08/15 05:18:29;;;;;;;11.80;5.75;;;;;;;19.75;71.77;97969.53;5092565;28;20020;-48
2022/08/15 05:20:55;;;;;;;13.32;6.57;;;;;;;19.69;71.77;97975.94;5092548;28;20069;-48
2022/08/15 05:23:23;;;;;;;8.98;5.80;;;;;;;19.67;72.24;97977.28;5091245;28;20028;-49
2022/08/15 05:25:53;;;;;;;10.70;6.00;;;;;;;19.78;72.46;97970.03;5091961;28;20044;-49
2022/08/15 05:28:20;;;;;;;10.10;5.28;;;;;;;19.95;71.48;97965.91;5092787;28;20081;-48
2022/08/15 05:30:47;;;;;;;6.50;5.55;;;;;;;19.98;71.19;97975.22;5091100;28;20031;-49
2022/08/15 05:33:19;;;;;;;6.60;5.43;;;;;;;19.94;71.43;97966.19;5092388;28;20466;-49
2022/08/15 05:35:49;;;;;;;9.82;4.90;;;;;;;19.98;70.78;97977.06;5092388;28;20528;-49
2022/08/15 05:38:21;;;;;;;5.90;4.30;;;;;;;19.86;70.54;97964.13;5092333;28;20020;-49
2022/08/15 05:40:50;;;;;;;7.38;4.60;;;;;;;19.74;70.99;97973.28;5092361;28;20032;-49
2022/08/15 05:43:31;;;;;;;8.68;4.60;;;;;;;19.66;71.37;97975.69;5092162;28;20447;-49
2022/08/15 05:46:37;;;;;;;7.68;4.85;;;;;;;19.60;71.91;97972.28;5092211;28;20030;-49
2022/08/15 05:49:42;;;;;;;7.07;4.90;;;;;;;19.64;72.07;97972.50;5053525;28;20032;-49
2022/08/15 05:52:32;;;;;;;7.65;5.63;;;;;;;19.87;72.29;97968.38;5092096;28;20031;-49
2022/08/15 05:55:25;;;;;;;7.82;5.28;;;;;;;20.20;71.82;97969.41;5091145;28;20051;-49
2022/08/15 05:58:30;;;;;;;7.95;5.50;;;;;;;20.62;70.03;97961.84;5092080;28;20032;-49
2022/08/15 06:01:16;;;;;;;9.73;5.65;;;;;;;20.68;69.43;97966.03;5090747;28;20035;-49
2022/08/15 06:04:07;;;;;;;12.15;6.10;;;;;;;20.85;69.45;97962.94;5092016;28;20039;-49
2022/08/15 06:06:36;;;;;;;8.68;5.95;;;;;;;20.91;68.56;97957.25;5091972;28;20073;-49
2022/08/15 06:09:21;;;;;;;8.27;5.93;;;;;;;21.07;68.39;97957.84;5090594;28;20508;-49
2022/08/15 06:11:47;;;;;;;14.63;7.20;;;;;;;21.16;67.53;97955.31;5091992;28;20054;-49
2022/08/15 06:14:34;;;;;;;11.27;6.88;;;;;;;21.18;67.89;97947.81;5091857;28;20501;-47
2022/08/15 06:17:15;;;;;;;15.18;7.05;;;;;;;21.25;67.55;97961.63;5091781;28;20063;-49
2022/08/15 06:19:46;;;;;;;6.85;6.07;;;;;;;21.22;67.17;97953.38;5094649;28;20024;-49
2022/08/15 06:22:38;;;;;;;7.95;5.88;;;;;;;21.10;67.46;97951.13;5094820;28;20405;-46
2022/08/15 06:25:17;;;;;;;10.18;6.15;;;;;;;21.08;67.87;97946.06;5096245;28;20032;-47
2022/08/15 06:27:58;;;;;;;7.22;5.90;;;;;;;21.14;67.33;97944.13;5095840;28;20047;-46
2022/08/15 06:31:04;;;;;;;6.55;4.88;;;;;;;21.24;67.64;97944.00;5095938;28;20058;-47
2022/08/15 06:33:40;;;;;;;7.53;5.82;;;;;;;21.30;66.49;97934.06;5072239;28;20048;-48
2022/08/15 06:36:25;;;;;;;10.95;5.78;;;;;;;21.18;66.59;97939.81;5095883;28;20060;-49
2022/08/15 06:39:14;;;;;;;10.82;5.00;;;;;;;21.22;66.64;97940.81;5094410;28;20066;-48
2022/08/15 06:42:30;;;;;;;10.15;5.78;;;;;;;21.35;66.91;97940.13;5095733;28;20031;-49
2022/08/15 06:45:01;;;;;;;5.60;4.75;;;;;;;21.65;65.60;97942.63;5013475;28;20129;-49
2022/08/15 06:47:28;;;;;;;5.88;4.63;;;;;;;21.65;65.19;97945.31;4996956;28;20037;-48
2022/08/15 06:49:59;;;;;;;6.95;4.80;;;;;;;21.72;64.95;97954.53;5013347;28;20029;-49
2022/08/15 06:52:28;;;;;;;5.50;4.50;;;;;;;21.81;64.87;97946.66;5013371;28;20116;-49
2022/08/15 06:54:55;;;;;;;5.95;4.57;;;;;;;22.03;65.20;97954.03;5013123;28;20049;-49
2022/08/15 06:57:48;;;;;;;7.93;5.85;;;;;;;22.44;64.28;97956.03;4996633;28;20076;-49
2022/08/15 07:00:34;;;;;;;9.18;4.95;;;;;;;22.81;63.26;97954.25;4996652;28;20128;-49
2022/08/15 07:03:26;;;;;;;12.48;4.20;;;;;;;23.25;61.47;97949.34;4996672;28;20034;-49
2022/08/15 07:05:55;;;;;;;10.38;5.30;;;;;;;23.43;60.53;97956.44;4996585;28;20036;-49
2022/08/15 07:08:46;;;;;;;5.75;3.95;;;;;;;23.75;59.83;97957.31;5012967;28;20037;-47
2022/08/15 07:11:37;;;;;;;7.95;4.15;;;;;;;24.49;58.46;97961.41;5012909;28;20521;-48
2022/08/15 07:14:19;;;;;;;8.18;3.70;;;;;;;25.38;56.00;97958.66;5012867;28;20030;-48
2022/08/15 07:17:15;;;;;;;4.93;4.43;;;;;;;26.26;53.03;97952.09;5012864;28;20107;-49
2022/08/15 07:19:40;;;;;;;11.15;4.18;;;;;;;27.25;50.44;97969.84;5020421;28;20044;-49
2022/08/15 07:22:09;;;;;;;4.38;3.97;;;;;;;27.84;48.95;97958.09;5094828;28;20393;-48
2022/08/15 07:24:35;;;;;;;20.05;4.95;;;;;;;27.96;49.23;97962.78;5094938;28;20454;-49
2022/08/15 07:27:04;;;;;;;5.28;3.38;;;;;;;27.92;47.94;97962.66;5093198;28;20040;-49
2022/08/15 07:29:36;;;;;;;10.65;5.05;;;;;;;27.59;49.03;97963.41;5093039;28;20106;-49
2022/08/15 07:32:21;;;;;;;8.15;3.85;;;;;;;27.69;48.88;97967.59;5093453;28;20447;-49
2022/08/15 07:34:52;;;;;;;;;;;;;;;27.94;49.67;97971.19;5095129;28;20066;-49
2022/08/15 07:37:20;;;;;;;7.18;4.35;;;;;;;28.08;48.91;97963.59;5094590;28;19912;-50
2022/08/15 07:39:56;;;;;;;9.10;4.28;;;;;;;28.77;47.74;97972.00;5094639;28;20032;-49
2022/08/15 07:42:22;;;;;;;5.25;4.00;;;;;;;29.14;45.88;97969.31;5094500;28;20032;-48
2022/08/15 07:44:51;;;;;;;7.00;4.03;;;;;;;29.26;45.50;97972.00;5094607;28;20252;-49
2022/08/15 07:47:54;;;;;;;8.15;4.20;;;;;;;29.52;44.97;97972.69;5094473;28;20020;-49
2022/08/15 07:50:31;;;;;;;11.00;3.90;;;;;;;29.55;44.68;97970.09;5084442;28;20075;-49
2022/08/15 07:53:08;;;;;;;10.32;4.05;;;;;;;29.60;44.41;97969.06;5094359;28;20078;-49
2022/08/15 07:55:34;;;;;;;10.30;4.72;;;;;;;29.35;45.39;97961.03;5093145;28;20070;-49
2022/08/15 07:58:20;;;;;;;13.25;5.32;;;;;;;28.77;46.43;97966.59;5094268;28;20020;-50
2022/08/15 08:01:08;;;;;;;10.27;4.63;;;;;;;28.51;47.14;97975.03;5094273;28;20035;-50
2022/08/15 08:03:37;;;;;;;16.73;4.82;;;;;;;28.56;47.21;97968.66;5094262;28;20024;-49
2022/08/15 08:06:09;;;;;;;7.18;4.78;;;;;;;29.52;45.83;97964.59;5094064;28;20099;-48
2022/08/15 08:08:47;;;;;;;7.07;4.03;;;;;;;31.95;41.42;97960.63;5092835;28;20031;-49
2022/08/15 08:11:31;;;;;;;9.63;4.38;;;;;;;33.79;37.18;97956.81;5094029;28;20024;-48
2022/08/15 08:14:35;;;;;;;13.20;4.85;;;;;;;33.34;37.67;97950.41;5094053;28;20024;-48
2022/08/15 08:17:18;;;;;;;16.83;4.47;;;;;;;33.32;37.35;97953.50;5069124;28;20032;-48
2022/08/15 08:20:01;;;;;;;14.63;4.80;;;;;;;33.12;37.90;97950.16;5092628;28;20074;-48
2022/08/15 08:22:30;;;;;;;11.43;4.57;;;;;;;32.87;37.81;97962.59;5093870;28;20401;-49
2022/08/15 08:25:07;;;;;;;14.80;5.38;;;;;;;32.09;39.42;97965.56;5093709;28;20028;-48
2022/08/15 08:27:49;;;;;;;14.60;4.40;;;;;;;31.47;40.67;97969.03;5093599;28;20530;-48
2022/08/15 08:30:20;;;;;;;7.00;4.50;;;;;;;31.09;41.84;97969.75;5093911;28;20125;-49
2022/08/15 08:33:06;;;;;;;9.48;3.70;;;;;;;32.00;39.93;97968.53;5093625;28;20063;-48
2022/08/15 08:35:53;;;;;;;14.68;4.63;;;;;;;32.79;39.13;97981.50;5093530;28;20481;-48
2022/08/15 08:38:43;;;;;;;7.07;4.00;;;;;;;34.32;36.74;97988.47;5093451;28;20035;-49
2022/08/15 08:41:34;;;;;;;5.93;3.60;;;;;;;35.68;33.77;97980.38;5091239;28;20480;-49
2022/08/15 08:44:11;;;;;;;8.52;3.30;;;;;;;37.51;30.95;97972.94;5093326;28;20044;-48
2022/08/15 08:47:09;;;;;;;7.07;3.80;;;;;;;38.53;28.49;97976.66;5093376;28;20047;-49
2022/08/15 08:49:56;;;;;;;7.25;3.63;;;;;;;38.70;28.06;97970.25;5093573;28;20047;-49
2022/08/15 08:52:34;;;;;;;3.55;2.88;;;;;;;39.09;26.97;97974.56;5093222;28;20024;-49
2022/08/15 08:55:05;;;;;;;5.00;3.13;;;;;;;39.21;25.38;97965.00;5093180;28;20035;-49
2022/08/15 08:58:03;;;;;;;4.18;3.03;;;;;;;39.21;25.56;97967.75;5093010;28;20058;-50
2022/08/15 09:00:50;;;;;;;13.15;5.05;;;;;;;38.52;25.88;97975.88;5092802;28;20085;-49
2022/08/15 09:03:37;;;;;;;14.38;4.22;;;;;;;37.13;27.73;97964.47;5091707;28;20089;-48
2022/08/15 09:06:04;;;;;;;20.75;4.50;;;;;;;35.97;29.87;97973.06;5091620;28;20516;-49
2022/08/15 09:08:36;;;;;;;6.85;3.55;;;;;;;35.46;30.27;97974.84;5091598;28;20028;-49
2022/08/15 09:11:20;;;;;;;9.20;4.03;;;;;;;35.04;31.22;97969.94;5092885;28;20060;-50
2022/08/15 09:13:49;;;;;;;5.80;3.65;;;;;;;34.28;31.72;97974.78;5093082;28;20039;-50
2022/08/15 09:16:34;;;;;;;11.48;4.03;;;;;;;33.78;32.21;97979.72;5092744;28;20031;-49
2022/08/15 09:19:24;;;;;;;5.75;3.00;;;;;;;34.60;29.11;97964.16;5092908;28;20428;-49
2022/08/15 09:21:51;;;;;;;5.50;2.65;;;;;;;35.26;27.08;97962.69;5091337;28;20036;-49
2022/08/15 09:24:20;;;;;;;5.45;2.55;;;;;;;35.61;26.47;97960.06;5093067;28;20026;-49
2022/08/15 09:26:46;;;;;;;9.77;4.00;;;;;;;35.76;26.27;97965.63;5092205;28;20066;-49
2022/08/15 09:29:29;;;;;;;11.23;3.13;;;;;;;36.90;25.39;97958.66;5092443;28;20052;-48
2022/08/15 09:32:26;;;;;;;7.90;3.13;;;;;;;39.00;23.10;97959.75;5074954;28;20044;-50
2022/08/15 09:35:12;;;;;;;23.65;4.63;;;;;;;39.57;21.86;97961.84;5091161;28;20043;-50
2022/08/15 09:38:22;;;;;;;9.27;3.10;;;;;;;40.13;21.21;97950.47;5092376;28;20429;-48
2022/08/15 09:41:03;;;;;;;8.25;2.50;;;;;;;40.42;20.60;97955.53;5092645;28;20044;-48
2022/08/15 09:43:56;;;;;;;9.38;2.83;;;;;;;40.43;19.99;97951.56;5091044;28;20040;-50
2022/08/15 09:46:49;;;;;;;11.27;3.00;;;;;;;41.29;19.35;97963.78;5092363;28;20028;-50
2022/08/15 09:49:20;;;;;;;5.25;2.50;;;;;;;42.17;18.62;97956.75;5092253;28;20032;-49
2022/08/15 09:51:58;;;;;;;7.63;2.47;;;;;;;43.34;16.60;97959.66;5092289;28;20099;-47
2022/08/15 09:54:26;;;;;;;5.43;2.00;;;;;;;44.16;15.52;97958.38;5092351;28;20060;-49
2022/08/15 09:57:19;;;;;;;5.70;2.80;;;;;;;44.78;15.65;97949.59;5092098;28;20020;-49
2022/08/15 09:59:51;;;;;;;7.93;2.75;;;;;;;44.64;15.82;97948.09;5090790;28;20024;-48
2022/08/15 10:02:19;;;;;;;7.03;3.05;;;;;;;43.98;14.80;97945.88;5090783;28;20105;-48
2022/08/15 10:04:44;;;;;;;8.35;2.38;;;;;;;43.48;15.28;97950.16;5092249;28;20077;-49
2022/08/15 10:07:10;;;;;;;6.45;2.80;;;;;;;43.59;15.52;97947.88;5091935;28;20028;-48
2022/08/15 10:09:41;;;;;;;5.38;2.28;;;;;;;43.73;15.67;97943.13;5092186;28;20044;-48
2022/08/15 10:12:07;;;;;;;6.38;2.40;;;;;;;43.28;15.77;97953.13;5091948;28;20444;-48
2022/08/15 10:14:42;;;;;;;8.27;3.10;;;;;;;42.43;15.85;97948.66;5091908;28;20032;-49
2022/08/15 10:17:37;;;;;;;4.57;2.42;;;;;;;41.35;17.22;97937.28;5092043;28;20115;-48
2022/08/15 10:20:16;;;;;;;5.03;2.60;;;;;;;40.34;18.17;97941.88;5090567;28;20035;-49
2022/08/15 10:23:00;;;;;;;5.50;2.25;;;;;;;40.22;18.15;97944.44;5091753;28;20024;-49
2022/08/15 10:25:30;;;;;;;5.07;2.90;;;;;;;39.96;18.18;97940.53;5090984;28;20055;-48
2022/08/15 10:28:19;;;;;;;4.63;2.50;;;;;;;39.71;18.50;97950.66;5091611;28;20144;-48
2022/08/15 10:30:59;;;;;;;6.97;2.88;;;;;;;39.93;18.05;97948.41;5092026;28;20040;-49
2022/08/15 10:33:33;;;;;;;8.75;3.25;;;;;;;40.17;18.01;97942.16;5091708;28;20067;-50
2022/08/15 10:36:15;;;;;;;10.07;3.80;;;;;;;40.86;18.01;97942.59;5090374;28;20040;-49
2022/08/15 10:39:06;;;;;;;13.50;4.18;;;;;;;41.86;17.06;97935.03;5091665;28;20081;-48
2022/08/15 10:41:52;;;;;;;9.63;3.85;;;;;;;42.28;16.65;97935.22;5068795;28;20043;-48
2022/08/15 10:44:28;;;;;;;7.40;2.75;;;;;;;40.95;17.32;97937.28;5091674;28;20028;-48
2022/08/15 10:47:20;;;;;;;10.68;4.78;;;;;;;39.52;19.31;97935.63;5090292;28;20081;-49
2022/08/15 10:49:49;;;;;;;7.55;3.35;;;;;;;39.67;19.51;97938.94;5079337;28;20038;-48
2022/08/15 10:52:39;;;;;;;8.10;2.80;;;;;;;40.11;18.61;97936.38;5091790;28;20393;-50
2022/08/15 10:55:29;;;;;;;7.85;3.20;;;;;;;39.39;19.26;97933.81;5090287;28;20028;-49
2022/08/15 10:58:09;;;;;;;8.90;2.97;;;;;;;38.11;20.15;97919.03;5091457;28;20107;-50
2022/08/15 11:01:04;;;;;;;5.90;2.72;;;;;;;37.62;19.69;97929.09;5091559;28;20035;-50
2022/08/15 11:03:52;;;;;;;6.95;3.20;;;;;;;37.76;19.67;97930.97;5091444;28;20043;-49
2022/08/15 11:06:21;;;;;;;10.40;3.00;;;;;;;37.27;20.37;97924.53;5085261;28;20402;-48
2022/08/15 11:08:51;;;;;;;8.65;3.28;;;;;;;36.91;20.70;97916.47;5095172;28;20508;-50
2022/08/15 11:11:19;;;;;;;10.50;3.53;;;;;;;36.72;20.82;97926.63;5095160;28;20031;-48
2022/08/15 11:13:52;;;;;;;4.88;3.42;;;;;;;36.63;21.08;97907.16;5093823;28;20153;-48
2022/08/15 11:16:35;;;;;;;5.97;3.13;;;;;;;36.24;21.96;97920.81;5095390;28;20452;-48
2022/08/15 11:19:24;;;;;;;6.32;3.28;;;;;;;36.47;22.16;97921.19;5094941;28;20541;-49
2022/08/15 11:22:03;;;;;;;6.35;3.45;;;;;;;37.71;20.76;97928.66;5093693;28;20401;-48
2022/08/15 11:24:34;;;;;;;8.45;3.35;;;;;;;38.04;20.69;97929.22;5094906;28;20043;-48
2022/08/15 11:27:19;;;;;;;6.47;2.78;;;;;;;37.66;20.96;97916.16;5094635;28;20096;-48
2022/08/15 11:29:48;;;;;;;7.65;3.58;;;;;;;37.34;21.33;97932.72;5094888;28;20020;-50
2022/08/15 11:32:28;;;;;;;9.02;3.10;;;;;;;37.33;21.47;97922.97;5094757;28;20048;-49
2022/08/15 11:34:55;;;;;;;7.43;2.75;;;;;;;37.53;20.93;97921.31;5094843;28;20031;-50
2022/08/15 11:37:24;;;;;;;7.18;3.38;;;;;;;37.74;20.74;97923.16;5094624;28;20635;-50
2022/08/15 11:40:48;;;;;;;4.90;3.33;;;;;;;37.65;20.88;97920.09;5093298;28;20029;-49
2022/08/15 11:43:17;;;;;;;4.93;2.97;;;;;;;37.38;20.53;97922.56;5091440;28;20505;-51
2022/08/15 11:45:48;;;;;;;5.57;3.00;;;;;;;37.87;20.24;97912.53;5093190;28;20020;-50
2022/08/15 11:48:24;;;;;;;9.10;3.20;;;;;;;38.09;20.14;97909.63;5094581;28;20028;-49
2022/08/15 11:51:01;;;;;;;5.43;2.95;;;;;;;38.12;19.45;97904.13;5094703;28;20028;-50
2022/08/15 11:53:30;;;;;;;3.80;2.70;;;;;;;38.07;19.58;97906.53;5094407;28;20115;-48
2022/08/15 11:55:55;;;;;;;5.57;3.53;;;;;;;37.78;19.91;97902.00;5094326;28;20065;-50
2022/08/15 11:58:44;;;;;;;6.47;2.88;;;;;;;37.40;19.94;97898.28;5092886;28;20024;-50
2022/08/15 12:01:31;;;;;;;8.68;3.42;;;;;;;37.18;20.32;97903.88;5094327;28;20020;-48
2022/08/15 12:04:05;;;;;;;8.00;2.95;;;;;;;37.20;20.58;97910.91;5092933;28;20028;-50
2022/08/15 12:06:40;;;;;;;;;;;;;;;37.59;20.27;97902.53;5093200;28;20029;-49